createdAt,value
2023-05-16T00:01:01.774Z,235282.00
2023-05-16T00:03:31.965Z,235282.00
2023-05-16T00:06:02.701Z,235282.00
2023-05-16T00:08:32.979Z,235282.00
2023-05-16T00:11:05.753Z,235282.00
2023-05-16T00:13:35.765Z,235282.00
2023-05-16T00:16:05.784Z,235282.00
2023-05-16T00:18:37.792Z,235282.00
2023-05-16T00:21:08.073Z,235282.00
2023-05-16T00:23:38.893Z,235282.00
2023-05-16T00:26:11.605Z,235282.00
2023-05-16T00:28:44.435Z,235282.00
2023-05-16T00:31:14.468Z,235278.00
2023-05-16T00:33:44.692Z,97803.00
2023-05-16T00:36:14.709Z,97799.00
2023-05-16T00:38:44.764Z,97811.00
2023-05-16T00:41:17.497Z,97807.00
2023-05-16T00:43:47.802Z,235282.00
2023-05-16T00:46:18.293Z,235282.00
2023-05-16T00:48:48.416Z,235282.00
2023-05-16T00:51:18.969Z,235282.00
2023-05-16T00:53:49.056Z,235282.00
2023-05-16T00:56:21.804Z,235282.00
2023-05-16T00:58:51.997Z,235282.00
2023-05-16T01:01:23.905Z,235282.00
2023-05-16T01:03:56.145Z,235282.00
2023-05-16T01:06:26.353Z,235282.00
2023-05-16T01:08:56.439Z,235282.00
2023-05-16T01:11:49.070Z,235282.00
2023-05-16T01:14:36.425Z,235282.00
2023-05-16T01:17:11.734Z,235282.00
2023-05-16T01:20:06.536Z,235282.00
2023-05-16T01:22:46.272Z,235282.00
2023-05-16T01:25:31.652Z,235282.00
2023-05-16T01:28:06.005Z,235282.00
2023-05-16T01:30:39.033Z,97932.00
2023-05-16T01:33:09.119Z,97839.00
2023-05-16T01:35:41.495Z,97836.00
2023-05-16T01:38:16.823Z,97837.00
2023-05-16T01:40:54.221Z,235282.00
2023-05-16T01:43:32.860Z,235282.00
2023-05-16T01:46:06.933Z,235282.00
2023-05-16T01:48:42.753Z,97851.00
2023-05-16T01:51:13.651Z,97848.00
2023-05-16T01:53:45.747Z,97846.00
2023-05-16T01:56:19.461Z,97856.00
2023-05-16T01:58:53.367Z,235282.00
2023-05-16T02:01:23.466Z,235282.00
2023-05-16T02:03:54.442Z,235282.00
2023-05-16T02:06:26.095Z,235282.00
2023-05-16T02:08:56.182Z,235282.00
2023-05-16T02:11:26.306Z,235282.00
2023-05-16T02:13:59.053Z,235282.00
2023-05-16T02:16:29.403Z,235282.00
2023-05-16T02:18:59.469Z,235282.00
2023-05-16T02:21:29.553Z,235282.00
2023-05-16T02:23:59.572Z,235282.00
2023-05-16T02:26:30.337Z,235282.00
2023-05-16T02:29:02.976Z,235282.00
2023-05-16T02:31:34.259Z,235282.00
2023-05-16T02:34:04.781Z,235282.00
2023-05-16T02:36:36.221Z,235282.00
2023-05-16T02:39:08.919Z,235282.00
2023-05-16T02:41:38.939Z,235282.00
2023-05-16T02:44:11.745Z,235282.00
2023-05-16T02:46:41.923Z,235282.00
2023-05-16T02:49:13.258Z,235282.00
2023-05-16T02:51:43.294Z,235282.00
2023-05-16T02:54:13.305Z,235282.00
2023-05-16T02:56:43.344Z,235282.00
2023-05-16T02:59:16.978Z,235282.00
2023-05-16T03:01:47.042Z,235282.00
2023-05-16T03:04:17.134Z,235282.00
2023-05-16T03:06:47.166Z,235282.00
2023-05-16T03:09:17.139Z,235282.00
2023-05-16T03:11:47.142Z,235282.00
2023-05-16T03:14:19.844Z,235282.00
2023-05-16T03:16:49.876Z,235282.00
2023-05-16T03:19:20.097Z,235282.00
2023-05-16T03:21:50.329Z,235282.00
2023-05-16T03:24:23.199Z,235282.00
2023-05-16T03:26:53.440Z,235282.00
2023-05-16T03:29:27.260Z,235282.00
2023-05-16T03:31:57.668Z,235282.00
2023-05-16T03:34:27.748Z,235282.00
2023-05-16T03:36:57.746Z,235282.00
2023-05-16T03:39:27.900Z,235282.00
2023-05-16T03:41:58.026Z,235282.00
2023-05-16T03:44:30.672Z,235282.00
2023-05-16T03:47:00.668Z,235282.00
2023-05-16T03:49:31.089Z,235282.00
2023-05-16T03:52:01.296Z,235282.00
2023-05-16T03:54:31.281Z,235282.00
2023-05-16T03:57:01.630Z,235282.00
2023-05-16T03:59:34.840Z,235282.00
2023-05-16T04:02:04.936Z,235282.00
2023-05-16T04:04:34.960Z,235282.00
2023-05-16T04:07:05.181Z,235282.00
2023-05-16T04:09:35.292Z,235282.00
2023-05-16T04:12:05.270Z,235282.00
2023-05-16T04:14:38.171Z,235282.00
2023-05-16T04:17:08.655Z,235282.00
2023-05-16T04:19:38.844Z,235282.00
2023-05-16T04:22:08.864Z,235282.00
2023-05-16T04:24:38.895Z,235282.00
2023-05-16T04:27:10.824Z,235282.00
2023-05-16T04:29:43.511Z,235282.00
2023-05-16T04:32:13.540Z,235282.00
2023-05-16T04:34:45.525Z,235282.00
2023-05-16T04:37:15.544Z,235282.00
2023-05-16T04:39:45.659Z,235282.00
2023-05-16T04:42:16.616Z,235282.00
2023-05-16T04:44:50.440Z,235282.00
2023-05-16T04:47:20.534Z,235282.00
2023-05-16T04:49:50.553Z,235282.00
2023-05-16T04:52:20.556Z,235282.00
2023-05-16T04:54:53.392Z,235282.00
2023-05-16T04:57:23.854Z,235282.00
2023-05-16T04:59:56.576Z,235282.00
2023-05-16T05:02:27.495Z,235282.00
2023-05-16T05:04:57.554Z,235282.00
2023-05-16T05:07:29.343Z,235282.00
2023-05-16T05:09:59.365Z,235282.00
2023-05-16T05:12:30.162Z,235282.00
2023-05-16T05:15:03.006Z,235282.00
2023-05-16T05:17:33.177Z,235282.00
2023-05-16T05:20:07.053Z,235282.00
2023-05-16T05:22:37.086Z,235282.00
2023-05-16T05:25:07.759Z,235282.00
2023-05-16T05:27:37.748Z,235282.00
2023-05-16T05:30:11.730Z,235282.00
2023-05-16T05:32:41.870Z,235282.00
2023-05-16T05:35:12.318Z,235282.00
2023-05-16T05:37:42.293Z,235282.00
2023-05-16T05:40:13.234Z,235282.00
2023-05-16T05:42:45.384Z,235282.00
2023-05-16T05:45:19.724Z,235282.00
2023-05-16T05:47:49.723Z,235282.00
2023-05-16T05:50:20.008Z,235282.00
2023-05-16T05:52:50.046Z,235282.00
2023-05-16T05:55:20.205Z,235282.00
2023-05-16T05:57:50.413Z,235282.00
2023-05-16T06:00:23.498Z,235282.00
2023-05-16T06:02:53.853Z,235282.00
2023-05-16T06:05:24.174Z,235282.00
2023-05-16T06:07:54.285Z,235282.00
2023-05-16T06:10:24.270Z,235282.00
2023-05-16T06:12:54.838Z,235282.00
2023-05-16T06:15:28.839Z,235282.00
2023-05-16T06:17:59.529Z,235282.00
2023-05-16T06:20:29.665Z,235282.00
2023-05-16T06:22:59.638Z,235282.00
2023-05-16T06:25:30.647Z,235282.00
2023-05-16T06:28:00.677Z,235282.00
2023-05-16T06:30:33.333Z,235282.00
2023-05-16T06:33:03.321Z,98010.00
2023-05-16T06:35:33.376Z,98001.00
2023-05-16T06:38:03.388Z,235282.00
2023-05-16T06:40:33.434Z,235282.00
2023-05-16T06:43:03.518Z,235282.00
2023-05-16T06:45:36.662Z,235282.00
2023-05-16T06:48:07.236Z,235282.00
2023-05-16T06:50:38.327Z,235282.00
2023-05-16T06:53:08.469Z,235282.00
2023-05-16T06:55:38.539Z,235282.00
2023-05-16T06:58:08.736Z,235282.00
2023-05-16T07:00:41.892Z,235282.00
2023-05-16T07:03:12.137Z,235282.00
2023-05-16T07:05:42.259Z,235282.00
2023-05-16T07:08:12.920Z,235282.00
2023-05-16T07:10:42.923Z,235282.00
2023-05-16T07:13:12.988Z,235282.00
2023-05-16T07:15:45.621Z,235282.00
2023-05-16T07:18:15.726Z,235282.00
2023-05-16T07:20:46.077Z,235282.00
2023-05-16T07:23:16.140Z,235282.00
2023-05-16T07:25:46.344Z,235282.00
2023-05-16T07:28:16.379Z,235282.00
2023-05-16T07:30:49.081Z,235282.00
2023-05-16T07:33:19.100Z,235282.00
2023-05-16T07:35:50.021Z,235282.00
2023-05-16T07:38:20.660Z,235282.00
2023-05-16T07:40:51.017Z,235282.00
2023-05-16T07:43:21.249Z,235282.00
2023-05-16T07:45:53.984Z,235282.00
2023-05-16T07:48:24.040Z,235282.00
2023-05-16T07:50:55.716Z,235282.00
2023-05-16T07:53:26.013Z,235282.00
2023-05-16T07:55:56.461Z,235282.00
2023-05-16T07:58:26.551Z,235282.00
2023-05-16T08:00:59.292Z,235282.00
2023-05-16T08:03:29.491Z,235282.00
2023-05-16T08:05:59.781Z,235282.00
2023-05-16T08:08:29.912Z,235282.00
2023-05-16T08:10:59.988Z,235282.00
2023-05-16T08:13:30.055Z,235282.00
2023-05-16T08:16:02.846Z,235282.00
2023-05-16T08:18:33.195Z,235282.00
2023-05-16T08:21:06.035Z,235282.00
2023-05-16T08:23:36.555Z,235282.00
2023-05-16T08:26:06.872Z,235282.00
2023-05-16T08:28:36.936Z,235282.00
2023-05-16T08:31:09.679Z,235282.00
2023-05-16T08:33:39.810Z,235282.00
2023-05-16T08:36:10.338Z,235282.00
2023-05-16T08:38:40.413Z,235282.00
2023-05-16T08:41:10.721Z,98130.00
2023-05-16T08:43:40.831Z,98121.00
2023-05-16T08:46:13.592Z,98119.00
2023-05-16T08:48:45.920Z,98111.00
2023-05-16T08:51:16.134Z,235282.00
2023-05-16T08:53:49.026Z,235282.00
2023-05-16T08:56:20.246Z,235282.00
2023-05-16T08:58:50.315Z,235282.00
2023-05-16T09:01:23.318Z,235282.00
2023-05-16T09:03:54.186Z,98122.00
2023-05-16T09:06:25.123Z,235278.00
2023-05-16T09:08:55.611Z,235282.00
2023-05-16T09:11:26.195Z,235282.00
2023-05-16T09:13:56.286Z,235282.00
2023-05-16T09:16:28.970Z,235282.00
2023-05-16T09:19:00.197Z,235282.00
2023-05-16T09:21:32.148Z,235282.00
2023-05-16T09:24:06.590Z,235282.00
2023-05-16T09:26:37.184Z,235282.00
2023-05-16T09:29:14.108Z,235282.00
2023-05-16T09:31:46.834Z,235282.00
2023-05-16T09:34:16.920Z,235282.00
2023-05-16T09:36:46.983Z,235282.00
2023-05-16T09:39:18.889Z,235282.00
2023-05-16T09:41:49.435Z,143747.00
2023-05-16T09:44:21.521Z,98158.00
2023-05-16T09:46:54.275Z,98169.00
2023-05-16T09:49:24.864Z,98166.00
2023-05-16T09:51:55.143Z,98163.00
2023-05-16T09:54:34.761Z,98157.00
2023-05-16T09:57:05.066Z,98169.00
2023-05-16T09:59:39.041Z,98170.00
2023-05-16T10:02:11.876Z,98167.00
2023-05-16T10:04:41.960Z,98186.00
2023-05-16T10:07:14.166Z,98172.00
2023-05-16T10:09:44.816Z,98189.00
2023-05-16T10:12:16.789Z,98182.00
2023-05-16T10:14:50.250Z,98176.00
2023-05-16T10:17:23.196Z,98186.00
2023-05-16T10:19:54.179Z,98181.00
2023-05-16T10:22:25.085Z,98186.00
2023-05-16T10:25:04.150Z,98183.00
2023-05-16T10:27:34.475Z,98178.00
2023-05-16T10:30:08.300Z,98189.00
2023-05-16T10:32:42.858Z,98190.00
2023-05-16T10:35:14.016Z,98195.00
2023-05-16T10:37:44.638Z,98197.00
2023-05-16T10:40:15.762Z,98183.00
2023-05-16T10:42:48.624Z,98177.00
2023-05-16T10:45:22.926Z,98180.00
2023-05-16T10:48:00.126Z,98180.00
2023-05-16T10:50:37.591Z,98175.00
2023-05-16T10:53:18.422Z,98173.00
2023-05-16T10:55:52.569Z,98168.00
2023-05-16T10:58:27.217Z,98173.00
2023-05-16T11:01:19.137Z,98176.00
2023-05-16T11:04:10.509Z,98175.00
2023-05-16T11:06:58.223Z,98172.00
2023-05-16T11:09:30.173Z,98168.00
2023-05-16T11:12:03.108Z,98157.00
2023-05-16T11:14:39.261Z,98156.00
2023-05-16T11:17:14.205Z,98153.00
2023-05-16T11:19:48.948Z,98143.00
2023-05-16T11:22:27.055Z,98149.00
2023-05-16T11:24:59.474Z,98136.00
2023-05-16T11:27:31.708Z,98150.00
2023-05-16T11:30:16.024Z,98160.00
2023-05-16T11:32:47.410Z,98159.00
2023-05-16T11:35:23.028Z,98171.00
2023-05-16T11:37:53.532Z,98162.00
2023-05-16T11:40:23.593Z,98179.00
2023-05-16T11:42:53.667Z,98182.00
2023-05-16T11:45:26.026Z,98181.00
2023-05-16T11:47:56.345Z,98181.00
2023-05-16T11:50:29.087Z,98184.00
2023-05-16T11:52:59.496Z,98191.00
2023-05-16T11:58:04.929Z,235282.00
2023-05-16T12:00:34.959Z,235282.00
2023-05-16T12:03:08.428Z,235282.00
2023-05-16T12:05:41.490Z,235282.00
2023-05-16T12:08:14.032Z,235282.00
2023-05-16T12:10:44.162Z,235282.00
2023-05-16T12:13:14.470Z,235282.00
2023-05-16T12:15:44.694Z,235282.00
2023-05-16T12:18:14.886Z,235282.00
2023-05-16T12:20:47.778Z,235282.00
2023-05-16T12:23:18.267Z,235282.00
2023-05-16T12:25:49.782Z,235282.00
2023-05-16T12:28:19.848Z,235282.00
2023-05-16T12:30:50.199Z,235282.00
2023-05-16T12:33:20.393Z,235282.00
2023-05-16T12:35:56.301Z,235282.00
2023-05-16T12:38:26.822Z,235282.00
2023-05-16T12:41:01.879Z,235282.00
2023-05-16T12:43:31.977Z,235282.00
2023-05-16T12:46:02.122Z,235282.00
2023-05-16T12:48:36.084Z,235282.00
2023-05-16T12:51:26.424Z,235282.00
2023-05-16T12:54:06.068Z,235282.00
2023-05-16T12:56:41.991Z,235282.00
2023-05-16T12:59:12.489Z,235282.00
2023-05-16T13:01:44.727Z,235282.00
2023-05-16T13:04:19.390Z,235282.00
2023-05-16T13:06:58.481Z,235282.00
2023-05-16T13:09:32.689Z,235282.00
2023-05-16T13:12:03.457Z,235282.00
2023-05-16T13:14:33.512Z,98213.00
2023-05-16T13:17:04.790Z,98207.00
2023-05-16T13:19:34.836Z,98196.00
2023-05-16T13:22:07.819Z,98195.00
2023-05-16T13:24:37.880Z,98197.00
2023-05-16T13:27:08.847Z,98201.00
2023-05-16T13:29:38.939Z,98203.00
2023-05-16T13:32:09.342Z,98199.00
2023-05-16T13:34:40.587Z,98206.00
2023-05-16T13:37:13.382Z,98184.00
2023-05-16T13:39:43.474Z,98206.00
2023-05-16T13:42:13.659Z,98206.00
2023-05-16T13:44:45.060Z,98212.00
2023-05-16T13:47:15.161Z,98216.00
2023-05-16T13:49:45.200Z,98204.00
2023-05-16T13:52:17.944Z,235282.00
2023-05-16T13:54:48.009Z,235282.00
2023-05-16T13:57:18.136Z,235282.00
2023-05-16T14:00:17.658Z,235282.00
2023-05-16T14:02:42.522Z,235282.00
2023-05-16T14:05:13.217Z,235282.00
2023-05-16T14:07:46.940Z,235282.00
2023-05-16T14:10:17.148Z,235282.00
2023-05-16T14:12:47.218Z,235282.00
2023-05-16T14:15:17.256Z,235282.00
2023-05-16T14:17:47.627Z,235282.00
2023-05-16T14:20:17.694Z,235282.00
2023-05-16T14:22:50.354Z,235282.00
2023-05-16T14:25:20.844Z,235282.00
2023-05-16T14:27:51.295Z,235282.00
2023-05-16T14:30:21.374Z,235282.00
2023-05-16T14:32:51.504Z,235282.00
2023-05-16T14:35:21.933Z,235282.00
2023-05-16T14:37:54.677Z,235282.00
2023-05-16T14:40:24.803Z,235282.00
2023-05-16T14:42:54.936Z,98207.00
2023-05-16T14:45:25.007Z,98198.00
2023-05-16T14:47:55.438Z,98208.00
2023-05-16T14:50:25.886Z,98205.00
2023-05-16T14:52:58.568Z,98212.00
2023-05-16T14:55:28.955Z,98212.00
2023-05-16T14:58:00.023Z,98216.00
2023-05-16T15:00:30.943Z,98207.00
2023-05-16T15:03:01.361Z,235282.00
2023-05-16T15:05:31.643Z,235282.00
2023-05-16T15:08:04.513Z,235282.00
2023-05-16T15:10:34.566Z,235282.00
2023-05-16T15:13:04.741Z,235282.00
2023-05-16T15:15:35.093Z,235282.00
2023-05-16T15:18:05.195Z,235282.00
2023-05-16T15:20:35.315Z,235282.00
2023-05-16T15:23:08.030Z,235282.00
2023-05-16T15:25:38.094Z,235282.00
2023-05-16T15:28:08.458Z,235282.00
2023-05-16T15:30:38.504Z,235282.00
2023-05-16T15:33:08.643Z,235282.00
2023-05-16T15:35:38.796Z,235282.00
2023-05-16T15:38:11.584Z,235282.00
2023-05-16T15:40:41.658Z,235282.00
2023-05-16T15:43:11.713Z,235282.00
2023-05-16T15:45:42.309Z,235282.00
2023-05-16T15:48:12.397Z,235282.00
2023-05-16T15:50:43.628Z,235282.00
2023-05-16T15:53:16.285Z,235282.00
2023-05-16T15:55:48.126Z,235282.00
2023-05-16T15:58:19.586Z,235282.00
2023-05-16T16:00:50.880Z,235282.00
2023-05-16T16:03:21.241Z,235282.00
2023-05-16T16:05:51.617Z,235282.00
2023-05-16T16:08:24.525Z,235282.00
2023-05-16T16:10:54.573Z,235282.00
2023-05-16T16:13:24.748Z,235282.00
2023-05-16T16:15:54.986Z,235282.00
2023-05-16T16:18:25.071Z,235282.00
2023-05-16T16:20:56.545Z,235282.00
2023-05-16T16:23:29.273Z,235282.00
2023-05-16T16:25:59.325Z,235282.00
2023-05-16T16:28:29.473Z,235282.00
2023-05-16T16:30:59.563Z,235282.00
2023-05-16T16:33:29.710Z,235282.00
2023-05-16T16:35:59.802Z,235282.00
2023-05-16T16:38:32.495Z,235282.00
2023-05-16T16:41:02.564Z,235282.00
2023-05-16T16:43:32.669Z,235282.00
2023-05-16T16:46:02.790Z,235282.00
2023-05-16T16:48:34.344Z,235282.00
2023-05-16T16:51:05.352Z,235282.00
2023-05-16T16:53:38.204Z,235282.00
2023-05-16T16:56:11.148Z,235282.00
2023-05-16T16:58:41.281Z,235282.00
2023-05-16T17:01:12.760Z,235282.00
2023-05-16T17:03:43.058Z,235282.00
2023-05-16T17:06:13.162Z,235282.00
2023-05-16T17:08:46.531Z,235282.00
2023-05-16T17:11:22.851Z,235282.00
2023-05-16T17:13:59.282Z,235282.00
2023-05-16T17:16:29.666Z,235282.00
2023-05-16T17:18:59.800Z,235282.00
2023-05-16T17:21:29.936Z,235282.00
2023-05-16T17:24:02.637Z,235282.00
2023-05-16T17:26:32.771Z,235282.00
2023-05-16T17:29:04.536Z,235282.00
2023-05-16T17:31:34.668Z,235282.00
2023-05-16T17:34:04.792Z,235282.00
2023-05-16T17:36:34.877Z,235282.00
2023-05-16T17:39:10.144Z,235282.00
2023-05-16T17:41:40.516Z,235282.00
2023-05-16T17:44:10.635Z,235282.00
2023-05-16T17:46:42.652Z,235282.00
2023-05-16T17:49:13.487Z,235282.00
2023-05-16T17:51:50.751Z,235282.00
2023-05-16T17:54:24.368Z,235282.00
2023-05-16T17:56:54.936Z,235282.00
2023-05-16T17:59:25.039Z,235282.00
2023-05-16T18:01:55.433Z,235282.00
2023-05-16T18:04:25.639Z,235282.00
2023-05-16T18:06:56.454Z,235282.00
2023-05-16T18:09:29.146Z,235282.00
2023-05-16T18:12:00.730Z,235282.00
2023-05-16T18:14:30.818Z,235282.00
2023-05-16T18:17:00.877Z,235282.00
2023-05-16T18:19:31.076Z,235282.00
2023-05-16T18:22:01.454Z,235282.00
2023-05-16T18:24:34.089Z,235282.00
2023-05-16T18:27:04.657Z,235282.00
2023-05-16T18:29:34.734Z,235282.00
2023-05-16T18:32:04.834Z,235282.00
2023-05-16T18:34:34.969Z,235282.00
2023-05-16T18:37:05.025Z,235282.00
2023-05-16T18:39:37.950Z,235282.00
2023-05-16T18:42:08.209Z,235282.00
2023-05-16T18:44:38.289Z,235282.00
2023-05-16T18:47:08.942Z,235282.00
2023-05-16T18:49:39.515Z,235282.00
2023-05-16T18:52:10.474Z,235282.00
2023-05-16T18:54:43.148Z,235282.00
2023-05-16T18:57:13.424Z,235282.00
2023-05-16T18:59:43.454Z,235282.00
2023-05-16T19:02:13.516Z,235282.00
2023-05-16T19:04:43.719Z,235282.00
2023-05-16T19:07:13.783Z,235282.00
2023-05-16T19:09:47.157Z,235282.00
2023-05-16T19:12:17.188Z,235282.00
2023-05-16T19:14:47.340Z,235282.00
2023-05-16T19:17:17.360Z,235282.00
2023-05-16T19:19:47.448Z,235282.00
2023-05-16T19:22:17.842Z,235282.00
2023-05-16T19:24:50.746Z,235282.00
2023-05-16T19:27:21.108Z,235282.00
2023-05-16T19:29:52.035Z,235282.00
2023-05-16T19:32:22.151Z,235282.00
2023-05-16T19:34:52.488Z,235282.00
2023-05-16T19:37:22.581Z,235282.00
2023-05-16T19:39:55.377Z,235282.00
2023-05-16T19:42:25.433Z,235282.00
2023-05-16T19:44:55.463Z,235282.00
2023-05-16T19:47:25.537Z,235282.00
2023-05-16T19:49:55.727Z,235282.00
2023-05-16T19:52:26.315Z,235282.00
2023-05-16T19:54:58.985Z,235282.00
2023-05-16T19:57:29.062Z,235282.00
2023-05-16T19:59:59.080Z,235282.00
2023-05-16T20:02:30.406Z,235282.00
2023-05-16T20:05:00.582Z,235282.00
2023-05-16T20:07:30.672Z,235282.00
2023-05-16T20:10:03.363Z,235282.00
2023-05-16T20:12:33.440Z,235282.00
2023-05-16T20:15:05.007Z,235282.00
2023-05-16T20:17:35.131Z,235282.00
2023-05-16T20:20:05.232Z,235282.00
2023-05-16T20:22:35.363Z,235282.00
2023-05-16T20:25:09.376Z,235282.00
2023-05-16T20:27:39.467Z,235282.00
2023-05-16T20:30:10.954Z,235282.00
2023-05-16T20:32:41.352Z,235282.00
2023-05-16T20:35:12.511Z,235282.00
2023-05-16T20:37:42.601Z,235282.00
2023-05-16T20:40:15.636Z,235282.00
2023-05-16T20:42:46.668Z,235282.00
2023-05-16T20:45:17.241Z,235282.00
2023-05-16T20:47:47.756Z,235282.00
2023-05-16T20:50:18.338Z,235282.00
2023-05-16T20:52:48.497Z,235282.00
2023-05-16T20:55:21.452Z,235282.00
2023-05-16T20:57:51.627Z,235282.00
2023-05-16T21:00:22.220Z,235282.00
2023-05-16T21:02:52.409Z,235282.00
2023-05-16T21:05:25.616Z,235282.00
2023-05-16T21:07:56.310Z,235282.00
2023-05-16T21:10:28.989Z,235282.00
2023-05-16T21:12:59.082Z,235282.00
2023-05-16T21:15:29.533Z,235282.00
2023-05-16T21:17:59.867Z,235282.00
2023-05-16T21:20:30.885Z,235282.00
2023-05-16T21:23:00.929Z,235282.00
2023-05-16T21:25:33.734Z,235282.00
2023-05-16T21:28:03.860Z,235282.00
2023-05-16T21:30:33.912Z,235282.00
2023-05-16T21:33:04.586Z,235282.00
2023-05-16T21:35:34.673Z,235282.00
2023-05-16T21:38:04.688Z,235282.00
2023-05-16T21:40:37.386Z,235282.00
2023-05-16T21:43:07.465Z,235282.00
2023-05-16T21:45:37.647Z,235282.00
2023-05-16T21:48:08.153Z,235282.00
2023-05-16T21:50:38.375Z,235282.00
2023-05-16T21:53:08.444Z,235282.00
2023-05-16T21:55:41.246Z,235282.00
2023-05-16T21:58:11.297Z,235282.00
2023-05-16T22:00:41.589Z,235282.00
2023-05-16T22:03:11.726Z,235282.00
2023-05-16T22:05:41.906Z,235282.00
2023-05-16T22:08:11.944Z,235282.00
2023-05-16T22:10:44.700Z,235282.00
2023-05-16T22:13:14.802Z,235282.00
2023-05-16T22:15:52.178Z,235282.00
2023-05-16T22:18:33.729Z,235282.00
2023-05-16T22:21:04.216Z,235282.00
2023-05-16T22:23:34.268Z,235282.00
2023-05-16T22:26:07.285Z,235282.00
2023-05-16T22:28:37.377Z,235282.00
2023-05-16T22:31:07.450Z,235282.00
2023-05-16T22:33:37.761Z,235282.00
2023-05-16T22:36:08.428Z,235282.00
2023-05-16T22:38:38.460Z,235282.00
2023-05-16T22:41:11.190Z,235282.00
2023-05-16T22:43:41.717Z,235282.00
2023-05-16T22:46:11.784Z,235282.00
2023-05-16T22:48:41.856Z,235282.00
2023-05-16T22:51:11.962Z,235282.00
2023-05-16T22:53:42.662Z,235282.00
2023-05-16T22:56:15.323Z,235282.00
2023-05-16T22:58:45.452Z,235282.00
2023-05-16T23:01:15.581Z,235282.00
2023-05-16T23:03:45.831Z,235282.00
2023-05-16T23:06:15.926Z,235282.00
2023-05-16T23:08:46.099Z,235282.00
2023-05-16T23:11:19.946Z,235282.00
2023-05-16T23:13:49.996Z,235282.00
2023-05-16T23:16:20.093Z,235282.00
2023-05-16T23:18:50.200Z,235282.00
2023-05-16T23:21:20.370Z,235282.00
2023-05-16T23:23:50.682Z,235282.00
2023-05-16T23:26:23.319Z,235282.00
2023-05-16T23:28:53.366Z,235282.00
2023-05-16T23:31:23.435Z,235282.00
2023-05-16T23:33:53.581Z,235282.00
2023-05-16T23:36:23.814Z,235282.00
2023-05-16T23:38:53.915Z,235282.00
2023-05-16T23:41:26.586Z,235282.00
2023-05-16T23:43:56.724Z,235282.00
2023-05-16T23:46:26.775Z,235282.00
2023-05-16T23:48:57.439Z,235282.00
2023-05-16T23:51:30.758Z,235282.00
2023-05-16T23:54:05.472Z,235282.00
2023-05-16T23:56:38.233Z,235282.00
2023-05-16T23:59:08.310Z,235282.00
